sensor_id;sensor_type;location;lat;lon;timestamp;P1;durP1;ratioP1;P2;durP2;ratioP2
9449;SDS011;4763;48.370;10.874;2023-04-06T00:02:06;13.03;;;8.53;;
9449;SDS011;4763;48.370;10.874;2023-04-06T00:04:53;13.43;;;7.80;;
9449;SDS011;4763;48.370;10.874;2023-04-06T00:07:40;11.83;;;7.77;;
9449;SDS011;4763;48.370;10.874;2023-04-06T00:10:27;12.40;;;7.57;;
9449;SDS011;4763;48.370;10.874;2023-04-06T00:13:15;15.77;;;8.63;;
9449;SDS011;4763;48.370;10.874;2023-04-06T00:16:03;13.50;;;9.07;;
9449;SDS011;4763;48.370;10.874;2023-04-06T00:18:51;11.90;;;8.30;;
9449;SDS011;4763;48.370;10.874;2023-04-06T00:21:38;13.33;;;9.27;;
9449;SDS011;4763;48.370;10.874;2023-04-06T00:24:25;10.07;;;8.00;;
9449;SDS011;4763;48.370;10.874;2023-04-06T00:27:12;11.53;;;7.87;;
9449;SDS011;4763;48.370;10.874;2023-04-06T00:30:01;14.63;;;9.43;;
9449;SDS011;4763;48.370;10.874;2023-04-06T00:32:48;12.73;;;8.00;;
9449;SDS011;4763;48.370;10.874;2023-04-06T00:35:35;13.53;;;8.57;;
9449;SDS011;4763;48.370;10.874;2023-04-06T00:38:24;14.77;;;9.13;;
9449;SDS011;4763;48.370;10.874;2023-04-06T00:41:11;11.70;;;8.57;;
9449;SDS011;4763;48.370;10.874;2023-04-06T00:43:58;11.07;;;9.03;;
9449;SDS011;4763;48.370;10.874;2023-04-06T00:46:47;12.50;;;8.70;;
9449;SDS011;4763;48.370;10.874;2023-04-06T00:49:34;13.13;;;9.10;;
9449;SDS011;4763;48.370;10.874;2023-04-06T00:52:21;12.73;;;8.07;;
9449;SDS011;4763;48.370;10.874;2023-04-06T00:55:08;19.83;;;8.63;;
9449;SDS011;4763;48.370;10.874;2023-04-06T00:57:56;10.50;;;8.10;;
9449;SDS011;4763;48.370;10.874;2023-04-06T01:00:45;16.27;;;8.70;;
9449;SDS011;4763;48.370;10.874;2023-04-06T01:03:35;12.40;;;8.20;;
9449;SDS011;4763;48.370;10.874;2023-04-06T01:06:22;13.93;;;8.47;;
9449;SDS011;4763;48.370;10.874;2023-04-06T01:09:09;11.53;;;8.90;;
9449;SDS011;4763;48.370;10.874;2023-04-06T01:11:56;12.83;;;8.50;;
9449;SDS011;4763;48.370;10.874;2023-04-06T01:14:43;11.43;;;8.27;;
9449;SDS011;4763;48.370;10.874;2023-04-06T01:17:30;12.07;;;8.57;;
9449;SDS011;4763;48.370;10.874;2023-04-06T01:20:19;14.20;;;9.97;;
9449;SDS011;4763;48.370;10.874;2023-04-06T01:23:07;15.20;;;9.03;;
9449;SDS011;4763;48.370;10.874;2023-04-06T01:25:55;11.43;;;8.40;;
9449;SDS011;4763;48.370;10.874;2023-04-06T01:28:42;13.33;;;9.53;;
9449;SDS011;4763;48.370;10.874;2023-04-06T01:31:29;11.07;;;8.80;;
9449;SDS011;4763;48.370;10.874;2023-04-06T01:34:16;13.73;;;9.57;;
9449;SDS011;4763;48.370;10.874;2023-04-06T01:37:04;11.67;;;8.67;;
9449;SDS011;4763;48.370;10.874;2023-04-06T01:39:52;12.50;;;8.83;;
9449;SDS011;4763;48.370;10.874;2023-04-06T01:42:39;14.10;;;9.23;;
9449;SDS011;4763;48.370;10.874;2023-04-06T01:45:26;11.97;;;8.67;;
9449;SDS011;4763;48.370;10.874;2023-04-06T01:48:14;12.23;;;8.50;;
9449;SDS011;4763;48.370;10.874;2023-04-06T01:51:01;16.70;;;9.13;;
9449;SDS011;4763;48.370;10.874;2023-04-06T01:53:48;10.37;;;8.53;;
9449;SDS011;4763;48.370;10.874;2023-04-06T01:56:36;14.03;;;8.53;;
9449;SDS011;4763;48.370;10.874;2023-04-06T01:59:23;13.67;;;9.23;;
9449;SDS011;4763;48.370;10.874;2023-04-06T02:02:10;11.40;;;7.63;;
9449;SDS011;4763;48.370;10.874;2023-04-06T02:04:58;12.93;;;8.50;;
9449;SDS011;4763;48.370;10.874;2023-04-06T02:07:46;12.80;;;9.03;;
9449;SDS011;4763;48.370;10.874;2023-04-06T02:10:33;12.93;;;9.10;;
9449;SDS011;4763;48.370;10.874;2023-04-06T02:13:23;12.93;;;9.13;;
9449;SDS011;4763;48.370;10.874;2023-04-06T02:16:10;13.63;;;8.87;;
9449;SDS011;4763;48.370;10.874;2023-04-06T02:18:57;12.87;;;9.30;;
9449;SDS011;4763;48.370;10.874;2023-04-06T02:21:44;12.57;;;9.20;;
9449;SDS011;4763;48.370;10.874;2023-04-06T02:24:31;12.13;;;9.67;;
9449;SDS011;4763;48.370;10.874;2023-04-06T02:27:18;12.70;;;9.67;;
9449;SDS011;4763;48.370;10.874;2023-04-06T02:30:07;12.90;;;9.53;;
9449;SDS011;4763;48.370;10.874;2023-04-06T02:32:55;14.40;;;10.47;;
9449;SDS011;4763;48.370;10.874;2023-04-06T02:35:43;16.63;;;10.17;;
9449;SDS011;4763;48.370;10.874;2023-04-06T02:38:31;16.13;;;10.20;;
9449;SDS011;4763;48.370;10.874;2023-04-06T02:41:18;17.07;;;9.50;;
9449;SDS011;4763;48.370;10.874;2023-04-06T02:44:07;17.20;;;10.30;;
9449;SDS011;4763;48.370;10.874;2023-04-06T02:46:56;14.80;;;10.57;;
9449;SDS011;4763;48.370;10.874;2023-04-06T02:49:43;13.73;;;10.07;;
9449;SDS011;4763;48.370;10.874;2023-04-06T02:52:30;13.60;;;8.83;;
9449;SDS011;4763;48.370;10.874;2023-04-06T02:55:17;13.77;;;9.67;;
9449;SDS011;4763;48.370;10.874;2023-04-06T02:58:05;14.70;;;9.63;;
9449;SDS011;4763;48.370;10.874;2023-04-06T03:00:52;15.50;;;9.73;;
9449;SDS011;4763;48.370;10.874;2023-04-06T03:03:41;18.67;;;10.20;;
9449;SDS011;4763;48.370;10.874;2023-04-06T03:06:28;17.10;;;9.87;;
9449;SDS011;4763;48.370;10.874;2023-04-06T03:09:15;19.50;;;10.33;;
9449;SDS011;4763;48.370;10.874;2023-04-06T03:12:02;14.03;;;9.00;;
9449;SDS011;4763;48.370;10.874;2023-04-06T03:14:49;15.17;;;9.30;;
9449;SDS011;4763;48.370;10.874;2023-04-06T03:17:36;15.27;;;9.63;;
9449;SDS011;4763;48.370;10.874;2023-04-06T03:20:25;13.10;;;9.87;;
9449;SDS011;4763;48.370;10.874;2023-04-06T03:23:12;15.40;;;9.33;;
9449;SDS011;4763;48.370;10.874;2023-04-06T03:25:59;14.33;;;9.97;;
9449;SDS011;4763;48.370;10.874;2023-04-06T03:28:46;14.17;;;9.77;;
9449;SDS011;4763;48.370;10.874;2023-04-06T03:31:33;16.97;;;9.93;;
9449;SDS011;4763;48.370;10.874;2023-04-06T03:34:20;17.50;;;10.43;;
9449;SDS011;4763;48.370;10.874;2023-04-06T03:37:08;16.97;;;9.73;;
9449;SDS011;4763;48.370;10.874;2023-04-06T03:39:55;13.23;;;10.20;;
9449;SDS011;4763;48.370;10.874;2023-04-06T03:42:42;15.77;;;10.00;;
9449;SDS011;4763;48.370;10.874;2023-04-06T03:45:29;15.17;;;9.57;;
9449;SDS011;4763;48.370;10.874;2023-04-06T03:48:16;13.10;;;9.20;;
9449;SDS011;4763;48.370;10.874;2023-04-06T03:51:04;16.30;;;9.07;;
9449;SDS011;4763;48.370;10.874;2023-04-06T03:53:52;11.90;;;9.40;;
9449;SDS011;4763;48.370;10.874;2023-04-06T03:56:40;19.27;;;9.40;;
9449;SDS011;4763;48.370;10.874;2023-04-06T03:59:27;13.87;;;9.87;;
9449;SDS011;4763;48.370;10.874;2023-04-06T04:02:14;10.83;;;8.40;;
9449;SDS011;4763;48.370;10.874;2023-04-06T04:05:01;12.97;;;9.37;;
9449;SDS011;4763;48.370;10.874;2023-04-06T04:07:48;15.10;;;10.70;;
9449;SDS011;4763;48.370;10.874;2023-04-06T04:10:37;12.93;;;8.87;;
9449;SDS011;4763;48.370;10.874;2023-04-06T04:13:24;13.67;;;9.63;;
9449;SDS011;4763;48.370;10.874;2023-04-06T04:16:11;18.43;;;9.93;;
9449;SDS011;4763;48.370;10.874;2023-04-06T04:18:58;12.27;;;9.20;;
9449;SDS011;4763;48.370;10.874;2023-04-06T04:21:45;14.43;;;9.40;;
9449;SDS011;4763;48.370;10.874;2023-04-06T04:24:33;16.27;;;10.23;;
9449;SDS011;4763;48.370;10.874;2023-04-06T04:27:21;14.27;;;9.30;;
9449;SDS011;4763;48.370;10.874;2023-04-06T04:30:08;15.43;;;10.20;;
9449;SDS011;4763;48.370;10.874;2023-04-06T04:32:56;13.83;;;9.70;;
9449;SDS011;4763;48.370;10.874;2023-04-06T04:35:43;15.73;;;9.97;;
9449;SDS011;4763;48.370;10.874;2023-04-06T04:38:30;15.37;;;11.10;;
9449;SDS011;4763;48.370;10.874;2023-04-06T04:41:17;19.13;;;11.23;;
9449;SDS011;4763;48.370;10.874;2023-04-06T04:44:06;18.63;;;13.70;;
9449;SDS011;4763;48.370;10.874;2023-04-06T04:46:53;28.10;;;17.40;;
9449;SDS011;4763;48.370;10.874;2023-04-06T04:49:40;26.77;;;16.87;;
9449;SDS011;4763;48.370;10.874;2023-04-06T04:52:27;20.60;;;13.40;;
9449;SDS011;4763;48.370;10.874;2023-04-06T04:55:14;20.87;;;13.80;;
9449;SDS011;4763;48.370;10.874;2023-04-06T04:58:01;23.10;;;12.27;;
9449;SDS011;4763;48.370;10.874;2023-04-06T05:00:49;22.90;;;12.20;;
9449;SDS011;4763;48.370;10.874;2023-04-06T05:03:37;17.17;;;11.10;;
9449;SDS011;4763;48.370;10.874;2023-04-06T05:06:24;15.50;;;11.50;;
9449;SDS011;4763;48.370;10.874;2023-04-06T05:09:11;17.03;;;12.03;;
9449;SDS011;4763;48.370;10.874;2023-04-06T05:11:59;14.50;;;10.57;;
9449;SDS011;4763;48.370;10.874;2023-04-06T05:14:46;17.90;;;10.97;;
9449;SDS011;4763;48.370;10.874;2023-04-06T05:17:35;13.20;;;10.00;;
9449;SDS011;4763;48.370;10.874;2023-04-06T05:20:22;15.87;;;11.00;;
9449;SDS011;4763;48.370;10.874;2023-04-06T05:23:10;16.43;;;10.67;;
9449;SDS011;4763;48.370;10.874;2023-04-06T05:25:57;15.77;;;9.87;;
9449;SDS011;4763;48.370;10.874;2023-04-06T05:28:44;16.43;;;10.10;;
9449;SDS011;4763;48.370;10.874;2023-04-06T05:31:31;17.37;;;10.03;;
9449;SDS011;4763;48.370;10.874;2023-04-06T05:34:20;12.53;;;9.07;;
9449;SDS011;4763;48.370;10.874;2023-04-06T05:37:07;20.03;;;10.20;;
9449;SDS011;4763;48.370;10.874;2023-04-06T05:39:55;13.17;;;9.73;;
9449;SDS011;4763;48.370;10.874;2023-04-06T05:42:42;13.27;;;10.07;;
9449;SDS011;4763;48.370;10.874;2023-04-06T05:45:29;15.47;;;10.60;;
9449;SDS011;4763;48.370;10.874;2023-04-06T05:48:16;15.77;;;10.47;;
9449;SDS011;4763;48.370;10.874;2023-04-06T05:51:05;14.43;;;9.53;;
9449;SDS011;4763;48.370;10.874;2023-04-06T05:53:52;18.43;;;10.80;;
9449;SDS011;4763;48.370;10.874;2023-04-06T05:56:39;18.00;;;11.43;;
9449;SDS011;4763;48.370;10.874;2023-04-06T05:59:26;19.47;;;11.33;;
9449;SDS011;4763;48.370;10.874;2023-04-06T06:02:13;13.70;;;10.27;;
9449;SDS011;4763;48.370;10.874;2023-04-06T06:05:00;21.33;;;10.67;;
9449;SDS011;4763;48.370;10.874;2023-04-06T06:07:49;16.53;;;10.50;;
9449;SDS011;4763;48.370;10.874;2023-04-06T06:10:37;15.37;;;10.23;;
9449;SDS011;4763;48.370;10.874;2023-04-06T06:13:25;13.53;;;10.33;;
9449;SDS011;4763;48.370;10.874;2023-04-06T06:16:12;14.27;;;10.20;;
9449;SDS011;4763;48.370;10.874;2023-04-06T06:18:59;16.93;;;10.13;;
9449;SDS011;4763;48.370;10.874;2023-04-06T06:21:46;14.13;;;9.57;;
9449;SDS011;4763;48.370;10.874;2023-04-06T06:24:35;13.63;;;9.77;;
9449;SDS011;4763;48.370;10.874;2023-04-06T06:27:21;13.70;;;9.93;;
9449;SDS011;4763;48.370;10.874;2023-04-06T06:30:09;16.10;;;10.20;;
9449;SDS011;4763;48.370;10.874;2023-04-06T06:32:56;13.47;;;9.97;;
9449;SDS011;4763;48.370;10.874;2023-04-06T06:35:43;16.53;;;10.40;;
9449;SDS011;4763;48.370;10.874;2023-04-06T06:38:30;14.90;;;10.50;;
9449;SDS011;4763;48.370;10.874;2023-04-06T06:41:18;13.63;;;10.17;;
9449;SDS011;4763;48.370;10.874;2023-04-06T06:44:06;23.13;;;10.13;;
9449;SDS011;4763;48.370;10.874;2023-04-06T06:46:53;14.53;;;10.03;;
9449;SDS011;4763;48.370;10.874;2023-04-06T06:49:40;15.07;;;9.93;;
9449;SDS011;4763;48.370;10.874;2023-04-06T06:52:27;13.37;;;9.13;;
9449;SDS011;4763;48.370;10.874;2023-04-06T06:55:14;12.87;;;9.10;;
9449;SDS011;4763;48.370;10.874;2023-04-06T06:58:02;11.40;;;8.77;;
9449;SDS011;4763;48.370;10.874;2023-04-06T07:00:49;11.80;;;8.80;;
9449;SDS011;4763;48.370;10.874;2023-04-06T07:03:36;15.27;;;9.47;;
9449;SDS011;4763;48.370;10.874;2023-04-06T07:06:23;13.40;;;9.33;;
9449;SDS011;4763;48.370;10.874;2023-04-06T07:09:11;14.27;;;10.40;;
9449;SDS011;4763;48.370;10.874;2023-04-06T07:11:58;14.77;;;9.07;;
9449;SDS011;4763;48.370;10.874;2023-04-06T07:14:47;17.27;;;10.03;;
9449;SDS011;4763;48.370;10.874;2023-04-06T07:17:34;13.87;;;9.00;;
9449;SDS011;4763;48.370;10.874;2023-04-06T07:20:21;14.97;;;9.17;;
9449;SDS011;4763;48.370;10.874;2023-04-06T07:23:08;12.33;;;8.03;;
9449;SDS011;4763;48.370;10.874;2023-04-06T07:25:55;16.83;;;9.50;;
9449;SDS011;4763;48.370;10.874;2023-04-06T07:28:42;14.13;;;9.30;;
9449;SDS011;4763;48.370;10.874;2023-04-06T07:31:31;14.60;;;9.37;;
9449;SDS011;4763;48.370;10.874;2023-04-06T07:34:18;13.27;;;9.10;;
9449;SDS011;4763;48.370;10.874;2023-04-06T07:37:06;16.43;;;9.73;;
9449;SDS011;4763;48.370;10.874;2023-04-06T07:39:53;21.83;;;12.20;;
9449;SDS011;4763;48.370;10.874;2023-04-06T07:42:40;14.10;;;9.17;;
9449;SDS011;4763;48.370;10.874;2023-04-06T07:45:27;12.57;;;9.40;;
9449;SDS011;4763;48.370;10.874;2023-04-06T07:48:15;11.37;;;8.53;;
9449;SDS011;4763;48.370;10.874;2023-04-06T07:51:03;11.13;;;8.17;;
9449;SDS011;4763;48.370;10.874;2023-04-06T07:53:51;12.83;;;7.83;;
9449;SDS011;4763;48.370;10.874;2023-04-06T07:56:38;14.20;;;10.60;;
9449;SDS011;4763;48.370;10.874;2023-04-06T07:59:25;12.93;;;8.50;;
9449;SDS011;4763;48.370;10.874;2023-04-06T08:02:13;12.13;;;8.40;;
9449;SDS011;4763;48.370;10.874;2023-04-06T08:05:01;10.60;;;7.80;;
9449;SDS011;4763;48.370;10.874;2023-04-06T08:07:48;10.03;;;7.50;;
9449;SDS011;4763;48.370;10.874;2023-04-06T08:10:35;13.23;;;8.13;;
9449;SDS011;4763;48.370;10.874;2023-04-06T08:13:22;11.87;;;8.63;;
9449;SDS011;4763;48.370;10.874;2023-04-06T08:16:09;13.20;;;8.17;;
9449;SDS011;4763;48.370;10.874;2023-04-06T08:18:56;16.80;;;8.13;;
9449;SDS011;4763;48.370;10.874;2023-04-06T08:21:44;13.70;;;7.57;;
9449;SDS011;4763;48.370;10.874;2023-04-06T08:24:32;14.43;;;7.97;;
9449;SDS011;4763;48.370;10.874;2023-04-06T08:27:19;10.07;;;7.40;;
9449;SDS011;4763;48.370;10.874;2023-04-06T08:30:06;12.67;;;8.00;;
9449;SDS011;4763;48.370;10.874;2023-04-06T08:32:54;13.67;;;8.07;;
9449;SDS011;4763;48.370;10.874;2023-04-06T08:35:41;9.77;;;6.73;;
9449;SDS011;4763;48.370;10.874;2023-04-06T08:38:29;11.33;;;6.80;;
9449;SDS011;4763;48.370;10.874;2023-04-06T08:41:16;11.97;;;7.40;;
9449;SDS011;4763;48.370;10.874;2023-04-06T08:44:04;11.77;;;7.53;;
9449;SDS011;4763;48.370;10.874;2023-04-06T08:46:51;10.93;;;7.50;;
9449;SDS011;4763;48.370;10.874;2023-04-06T08:49:38;11.50;;;7.40;;
9449;SDS011;4763;48.370;10.874;2023-04-06T08:52:25;9.77;;;6.70;;
9449;SDS011;4763;48.370;10.874;2023-04-06T08:55:15;12.60;;;6.67;;
9449;SDS011;4763;48.370;10.874;2023-04-06T08:58:03;12.13;;;6.77;;
9449;SDS011;4763;48.370;10.874;2023-04-06T09:00:53;11.30;;;6.50;;
9449;SDS011;4763;48.370;10.874;2023-04-06T09:03:40;9.80;;;6.30;;
9449;SDS011;4763;48.370;10.874;2023-04-06T09:06:28;11.30;;;6.43;;
9449;SDS011;4763;48.370;10.874;2023-04-06T09:09:16;12.23;;;6.37;;
9449;SDS011;4763;48.370;10.874;2023-04-06T09:12:04;10.93;;;5.40;;
9449;SDS011;4763;48.370;10.874;2023-04-06T09:14:52;7.63;;;5.87;;
9449;SDS011;4763;48.370;10.874;2023-04-06T09:17:39;7.83;;;5.80;;
9449;SDS011;4763;48.370;10.874;2023-04-06T09:20:31;10.83;;;6.80;;
9449;SDS011;4763;48.370;10.874;2023-04-06T09:23:18;8.43;;;5.80;;
9449;SDS011;4763;48.370;10.874;2023-04-06T09:26:06;9.87;;;6.27;;
9449;SDS011;4763;48.370;10.874;2023-04-06T09:28:56;12.10;;;6.83;;
9449;SDS011;4763;48.370;10.874;2023-04-06T09:31:44;10.73;;;6.77;;
9449;SDS011;4763;48.370;10.874;2023-04-06T09:34:31;9.50;;;6.27;;
9449;SDS011;4763;48.370;10.874;2023-04-06T09:37:19;12.80;;;7.00;;
9449;SDS011;4763;48.370;10.874;2023-04-06T09:40:06;9.90;;;6.03;;
9449;SDS011;4763;48.370;10.874;2023-04-06T09:42:54;8.93;;;6.23;;
9449;SDS011;4763;48.370;10.874;2023-04-06T09:45:44;10.33;;;6.20;;
9449;SDS011;4763;48.370;10.874;2023-04-06T09:48:33;10.07;;;6.47;;
9449;SDS011;4763;48.370;10.874;2023-04-06T09:51:21;9.33;;;6.40;;
9449;SDS011;4763;48.370;10.874;2023-04-06T09:54:09;10.77;;;7.17;;
9449;SDS011;4763;48.370;10.874;2023-04-06T09:56:58;10.10;;;6.70;;
9449;SDS011;4763;48.370;10.874;2023-04-06T09:59:52;10.43;;;6.70;;
9449;SDS011;4763;48.370;10.874;2023-04-06T10:02:50;9.50;;;6.67;;
9449;SDS011;4763;48.370;10.874;2023-04-06T10:05:42;11.07;;;6.27;;
9449;SDS011;4763;48.370;10.874;2023-04-06T10:08:33;10.33;;;6.60;;
9449;SDS011;4763;48.370;10.874;2023-04-06T10:11:21;7.93;;;6.07;;
9449;SDS011;4763;48.370;10.874;2023-04-06T10:14:08;11.20;;;7.37;;
9449;SDS011;4763;48.370;10.874;2023-04-06T10:16:57;10.43;;;6.73;;
9449;SDS011;4763;48.370;10.874;2023-04-06T10:19:47;10.33;;;5.97;;
9449;SDS011;4763;48.370;10.874;2023-04-06T10:22:41;11.43;;;6.83;;
9449;SDS011;4763;48.370;10.874;2023-04-06T10:25:35;8.17;;;5.70;;
9449;SDS011;4763;48.370;10.874;2023-04-06T10:28:23;10.60;;;6.37;;
9449;SDS011;4763;48.370;10.874;2023-04-06T10:31:11;7.27;;;5.50;;
9449;SDS011;4763;48.370;10.874;2023-04-06T10:33:59;10.97;;;6.17;;
9449;SDS011;4763;48.370;10.874;2023-04-06T10:36:48;8.23;;;5.37;;
9449;SDS011;4763;48.370;10.874;2023-04-06T10:39:35;9.17;;;5.83;;
9449;SDS011;4763;48.370;10.874;2023-04-06T10:42:36;9.50;;;5.67;;
9449;SDS011;4763;48.370;10.874;2023-04-06T10:45:24;9.10;;;5.77;;
9449;SDS011;4763;48.370;10.874;2023-04-06T10:48:15;7.53;;;5.13;;
9449;SDS011;4763;48.370;10.874;2023-04-06T10:51:06;9.30;;;5.57;;
9449;SDS011;4763;48.370;10.874;2023-04-06T10:53:56;9.37;;;5.63;;
9449;SDS011;4763;48.370;10.874;2023-04-06T10:56:44;7.77;;;6.00;;
9449;SDS011;4763;48.370;10.874;2023-04-06T10:59:31;8.70;;;5.40;;
9449;SDS011;4763;48.370;10.874;2023-04-06T11:02:20;7.43;;;5.03;;
9449;SDS011;4763;48.370;10.874;2023-04-06T11:05:08;7.40;;;5.23;;
9449;SDS011;4763;48.370;10.874;2023-04-06T11:07:58;7.20;;;4.93;;
9449;SDS011;4763;48.370;10.874;2023-04-06T11:10:46;5.40;;;4.57;;
9449;SDS011;4763;48.370;10.874;2023-04-06T11:13:38;7.33;;;5.30;;
9449;SDS011;4763;48.370;10.874;2023-04-06T11:16:27;7.33;;;4.83;;
9449;SDS011;4763;48.370;10.874;2023-04-06T11:19:17;6.07;;;4.27;;
9449;SDS011;4763;48.370;10.874;2023-04-06T11:22:06;7.77;;;4.73;;
9449;SDS011;4763;48.370;10.874;2023-04-06T11:25:04;5.97;;;4.33;;
9449;SDS011;4763;48.370;10.874;2023-04-06T11:27:53;8.13;;;4.13;;
9449;SDS011;4763;48.370;10.874;2023-04-06T11:30:40;4.47;;;3.37;;
9449;SDS011;4763;48.370;10.874;2023-04-06T11:33:27;4.80;;;3.50;;
9449;SDS011;4763;48.370;10.874;2023-04-06T11:36:15;4.33;;;3.50;;
9449;SDS011;4763;48.370;10.874;2023-04-06T11:39:02;8.53;;;5.33;;
9449;SDS011;4763;48.370;10.874;2023-04-06T11:41:50;4.10;;;3.37;;
9449;SDS011;4763;48.370;10.874;2023-04-06T11:44:42;6.80;;;4.13;;
9449;SDS011;4763;48.370;10.874;2023-04-06T11:47:32;4.20;;;3.47;;
9449;SDS011;4763;48.370;10.874;2023-04-06T11:50:20;4.90;;;3.70;;
9449;SDS011;4763;48.370;10.874;2023-04-06T11:53:07;3.73;;;3.20;;
9449;SDS011;4763;48.370;10.874;2023-04-06T11:55:54;7.10;;;3.90;;
9449;SDS011;4763;48.370;10.874;2023-04-06T11:58:41;3.63;;;3.20;;
9449;SDS011;4763;48.370;10.874;2023-04-06T12:05:12;4.90;;;3.60;;
9449;SDS011;4763;48.370;10.874;2023-04-06T12:07:59;6.50;;;4.00;;
9449;SDS011;4763;48.370;10.874;2023-04-06T12:10:47;4.87;;;3.67;;
9449;SDS011;4763;48.370;10.874;2023-04-06T12:13:34;4.40;;;3.20;;
9449;SDS011;4763;48.370;10.874;2023-04-06T12:16:21;3.93;;;3.40;;
9449;SDS011;4763;48.370;10.874;2023-04-06T12:19:08;4.80;;;4.10;;
9449;SDS011;4763;48.370;10.874;2023-04-06T12:21:56;5.77;;;4.07;;
9449;SDS011;4763;48.370;10.874;2023-04-06T12:24:43;7.03;;;4.37;;
9449;SDS011;4763;48.370;10.874;2023-04-06T12:27:30;5.00;;;3.80;;
9449;SDS011;4763;48.370;10.874;2023-04-06T12:30:18;5.37;;;3.87;;
9449;SDS011;4763;48.370;10.874;2023-04-06T12:33:05;4.37;;;3.00;;
9449;SDS011;4763;48.370;10.874;2023-04-06T12:35:52;3.57;;;3.20;;
9449;SDS011;4763;48.370;10.874;2023-04-06T12:38:40;4.27;;;3.50;;
9449;SDS011;4763;48.370;10.874;2023-04-06T12:41:30;5.07;;;3.77;;
9449;SDS011;4763;48.370;10.874;2023-04-06T12:44:17;5.50;;;3.27;;
9449;SDS011;4763;48.370;10.874;2023-04-06T12:47:04;4.87;;;3.27;;
9449;SDS011;4763;48.370;10.874;2023-04-06T12:49:52;9.00;;;2.97;;
9449;SDS011;4763;48.370;10.874;2023-04-06T12:52:40;4.53;;;3.47;;
9449;SDS011;4763;48.370;10.874;2023-04-06T12:55:30;5.03;;;3.23;;
9449;SDS011;4763;48.370;10.874;2023-04-06T12:58:19;6.93;;;3.37;;
9449;SDS011;4763;48.370;10.874;2023-04-06T13:01:07;4.13;;;3.50;;
9449;SDS011;4763;48.370;10.874;2023-04-06T13:03:55;4.13;;;3.33;;
9449;SDS011;4763;48.370;10.874;2023-04-06T13:06:42;4.03;;;3.60;;
9449;SDS011;4763;48.370;10.874;2023-04-06T13:09:29;5.17;;;3.67;;
9449;SDS011;4763;48.370;10.874;2023-04-06T13:12:18;4.80;;;3.83;;
9449;SDS011;4763;48.370;10.874;2023-04-06T13:15:05;5.13;;;3.50;;
9449;SDS011;4763;48.370;10.874;2023-04-06T13:17:53;4.47;;;3.80;;
9449;SDS011;4763;48.370;10.874;2023-04-06T13:20:40;6.80;;;3.70;;
9449;SDS011;4763;48.370;10.874;2023-04-06T13:23:27;4.87;;;3.50;;
9449;SDS011;4763;48.370;10.874;2023-04-06T13:26:14;4.77;;;3.10;;
9449;SDS011;4763;48.370;10.874;2023-04-06T13:29:03;4.57;;;3.43;;
9449;SDS011;4763;48.370;10.874;2023-04-06T13:31:50;3.90;;;3.13;;
9449;SDS011;4763;48.370;10.874;2023-04-06T13:34:37;5.93;;;2.80;;
9449;SDS011;4763;48.370;10.874;2023-04-06T13:37:25;2.87;;;2.40;;
9449;SDS011;4763;48.370;10.874;2023-04-06T13:40:12;4.03;;;3.20;;
9449;SDS011;4763;48.370;10.874;2023-04-06T13:42:59;4.80;;;3.10;;
9449;SDS011;4763;48.370;10.874;2023-04-06T13:45:49;6.47;;;3.37;;
9449;SDS011;4763;48.370;10.874;2023-04-06T13:48:37;4.33;;;3.33;;
9449;SDS011;4763;48.370;10.874;2023-04-06T13:51:24;4.87;;;3.27;;
9449;SDS011;4763;48.370;10.874;2023-04-06T13:54:12;4.37;;;3.20;;
9449;SDS011;4763;48.370;10.874;2023-04-06T13:56:59;6.93;;;3.60;;
9449;SDS011;4763;48.370;10.874;2023-04-06T13:59:46;7.30;;;3.90;;
9449;SDS011;4763;48.370;10.874;2023-04-06T14:02:36;5.27;;;3.73;;
9449;SDS011;4763;48.370;10.874;2023-04-06T14:05:23;4.13;;;3.43;;
9449;SDS011;4763;48.370;10.874;2023-04-06T14:08:11;4.97;;;3.13;;
9449;SDS011;4763;48.370;10.874;2023-04-06T14:10:59;4.93;;;3.33;;
9449;SDS011;4763;48.370;10.874;2023-04-06T14:13:46;5.77;;;3.50;;
9449;SDS011;4763;48.370;10.874;2023-04-06T14:16:33;5.33;;;3.50;;
9449;SDS011;4763;48.370;10.874;2023-04-06T14:19:21;4.77;;;3.57;;
9449;SDS011;4763;48.370;10.874;2023-04-06T14:22:08;4.87;;;3.33;;
9449;SDS011;4763;48.370;10.874;2023-04-06T14:24:55;5.77;;;3.70;;
9449;SDS011;4763;48.370;10.874;2023-04-06T14:27:43;5.67;;;3.13;;
9449;SDS011;4763;48.370;10.874;2023-04-06T14:30:30;6.17;;;3.30;;
9449;SDS011;4763;48.370;10.874;2023-04-06T14:33:17;4.50;;;3.50;;
9449;SDS011;4763;48.370;10.874;2023-04-06T14:36:06;3.73;;;3.10;;
9449;SDS011;4763;48.370;10.874;2023-04-06T14:38:53;5.40;;;3.13;;
9449;SDS011;4763;48.370;10.874;2023-04-06T14:41:40;3.40;;;3.08;;
9449;SDS011;4763;48.370;10.874;2023-04-06T14:44:27;6.03;;;3.47;;
9449;SDS011;4763;48.370;10.874;2023-04-06T14:47:15;6.70;;;3.88;;
9449;SDS011;4763;48.370;10.874;2023-04-06T14:50:06;4.63;;;3.38;;
9449;SDS011;4763;48.370;10.874;2023-04-06T14:52:55;5.93;;;3.13;;
9449;SDS011;4763;48.370;10.874;2023-04-06T14:55:42;4.13;;;3.15;;
9449;SDS011;4763;48.370;10.874;2023-04-06T14:58:29;6.55;;;3.63;;
9449;SDS011;4763;48.370;10.874;2023-04-06T15:01:16;4.77;;;3.83;;
9449;SDS011;4763;48.370;10.874;2023-04-06T15:04:04;4.32;;;3.60;;
9449;SDS011;4763;48.370;10.874;2023-04-06T15:06:52;5.13;;;3.10;;
9449;SDS011;4763;48.370;10.874;2023-04-06T15:09:40;4.90;;;3.10;;
9449;SDS011;4763;48.370;10.874;2023-04-06T15:12:27;6.70;;;3.17;;
9449;SDS011;4763;48.370;10.874;2023-04-06T15:15:14;4.30;;;3.47;;
9449;SDS011;4763;48.370;10.874;2023-04-06T15:18:02;3.95;;;3.40;;
9449;SDS011;4763;48.370;10.874;2023-04-06T15:20:49;5.82;;;3.92;;
9449;SDS011;4763;48.370;10.874;2023-04-06T15:23:36;3.97;;;3.55;;
9449;SDS011;4763;48.370;10.874;2023-04-06T15:26:24;4.23;;;3.50;;
9449;SDS011;4763;48.370;10.874;2023-04-06T15:29:12;4.40;;;3.17;;
9449;SDS011;4763;48.370;10.874;2023-04-06T15:31:59;4.77;;;3.57;;
9449;SDS011;4763;48.370;10.874;2023-04-06T15:34:46;3.97;;;3.00;;
9449;SDS011;4763;48.370;10.874;2023-04-06T15:37:33;3.97;;;3.33;;
9449;SDS011;4763;48.370;10.874;2023-04-06T15:40:20;5.53;;;3.67;;
9449;SDS011;4763;48.370;10.874;2023-04-06T15:43:08;4.30;;;3.57;;
9449;SDS011;4763;48.370;10.874;2023-04-06T15:45:55;5.60;;;3.40;;
9449;SDS011;4763;48.370;10.874;2023-04-06T15:48:42;3.37;;;2.90;;
9449;SDS011;4763;48.370;10.874;2023-04-06T15:51:29;4.50;;;2.80;;
9449;SDS011;4763;48.370;10.874;2023-04-06T15:54:17;5.70;;;3.33;;
9449;SDS011;4763;48.370;10.874;2023-04-06T15:57:05;6.23;;;3.87;;
9449;SDS011;4763;48.370;10.874;2023-04-06T15:59:54;6.40;;;3.50;;
9449;SDS011;4763;48.370;10.874;2023-04-06T16:02:41;5.37;;;4.00;;
9449;SDS011;4763;48.370;10.874;2023-04-06T16:05:29;5.23;;;3.50;;
9449;SDS011;4763;48.370;10.874;2023-04-06T16:08:16;4.30;;;3.37;;
9449;SDS011;4763;48.370;10.874;2023-04-06T16:11:04;4.43;;;3.43;;
9449;SDS011;4763;48.370;10.874;2023-04-06T16:13:51;4.77;;;3.23;;
9449;SDS011;4763;48.370;10.874;2023-04-06T16:16:39;5.03;;;3.20;;
9449;SDS011;4763;48.370;10.874;2023-04-06T16:19:27;4.77;;;3.30;;
9449;SDS011;4763;48.370;10.874;2023-04-06T16:22:14;5.00;;;3.43;;
9449;SDS011;4763;48.370;10.874;2023-04-06T16:25:02;3.77;;;3.10;;
9449;SDS011;4763;48.370;10.874;2023-04-06T16:27:49;4.23;;;3.60;;
9449;SDS011;4763;48.370;10.874;2023-04-06T16:30:36;6.83;;;3.10;;
9449;SDS011;4763;48.370;10.874;2023-04-06T16:33:24;4.13;;;3.50;;
9449;SDS011;4763;48.370;10.874;2023-04-06T16:36:11;6.83;;;4.43;;
9449;SDS011;4763;48.370;10.874;2023-04-06T16:38:59;7.13;;;4.70;;
9449;SDS011;4763;48.370;10.874;2023-04-06T16:41:46;4.47;;;3.10;;
9449;SDS011;4763;48.370;10.874;2023-04-06T16:44:33;10.23;;;6.43;;
9449;SDS011;4763;48.370;10.874;2023-04-06T16:47:20;11.33;;;6.60;;
9449;SDS011;4763;48.370;10.874;2023-04-06T16:50:09;19.47;;;10.63;;
9449;SDS011;4763;48.370;10.874;2023-04-06T16:52:57;15.80;;;10.30;;
9449;SDS011;4763;48.370;10.874;2023-04-06T16:55:43;8.47;;;5.83;;
9449;SDS011;4763;48.370;10.874;2023-04-06T16:58:31;8.10;;;5.33;;